TOM9VL EGBB-GMAD
Flight info
| Callsign | TOM9VL |
|---|---|
| Flight time | N/A |
| Altitude | 37000 |
| Route | EGBB/15 N0414F240 LUXT15 LUXTO N92 ZESPE/N0453F340 DCT PACSE DCT TONQU DCT SALCO/N0454F330 DCT EBOMO DCT IBISU/N0457F350 DCT ERWAN DCT BALDA DCT BATAX DCT TOFEF DCT ALAGU DCT AMSEL UR722 CSD UR975 EKTAL EKTA2A GMAD/27 |
| Aircraft | B738/M-V/N |
Departure
| Time | N/A |
|---|---|
| Airport | Birmingham Airport (EGBB) |
Arrival
| Time | 2026-05-07 18:40 |
|---|---|
| Airport | Al Massira Airport (GMAD) |
| Time | Latitude | Longitude | Altitude | Speed | Heading |
|---|---|---|---|---|---|
| 2026-05-07 16:48 | 41.67706 | -6.63041 | 36903 ft | 442 kts | 197° |
| 2026-05-07 16:49 | 41.64722 | -6.64095 | 36901 ft | 443 kts | 198° |
| 2026-05-07 16:49 | 41.58775 | -6.66199 | 36900 ft | 442 kts | 197° |
| 2026-05-07 16:50 | 41.52860 | -6.68288 | 36891 ft | 442 kts | 197° |
| 2026-05-07 16:50 | 41.46905 | -6.70385 | 36896 ft | 442 kts | 197° |
| 2026-05-07 16:51 | 41.40954 | -6.72477 | 36893 ft | 443 kts | 197° |
| 2026-05-07 16:51 | 41.34999 | -6.74565 | 36877 ft | 443 kts | 198° |
| 2026-05-07 16:52 | 41.29034 | -6.76653 | 36889 ft | 443 kts | 198° |
| 2026-05-07 16:52 | 41.23071 | -6.78737 | 36892 ft | 443 kts | 198° |
| 2026-05-07 16:53 | 41.17100 | -6.80819 | 36893 ft | 443 kts | 198° |
| 2026-05-07 16:53 | 41.11140 | -6.82894 | 36886 ft | 444 kts | 198° |
| 2026-05-07 16:54 | 41.05197 | -6.84959 | 36894 ft | 444 kts | 198° |
| 2026-05-07 16:54 | 40.99180 | -6.87045 | 36887 ft | 444 kts | 198° |
| 2026-05-07 16:55 | 40.93217 | -6.89109 | 36881 ft | 443 kts | 198° |
| 2026-05-07 16:55 | 40.87287 | -6.91157 | 36881 ft | 442 kts | 198° |
| 2026-05-07 16:56 | 40.81335 | -6.93210 | 36885 ft | 442 kts | 198° |
| 2026-05-07 16:56 | 40.72408 | -6.96281 | 36890 ft | 441 kts | 198° |
| 2026-05-07 16:57 | 40.66470 | -6.98319 | 36879 ft | 441 kts | 198° |
| 2026-05-07 16:57 | 40.60536 | -7.00353 | 36892 ft | 440 kts | 198° |
| 2026-05-07 16:58 | 40.54600 | -7.02383 | 36887 ft | 441 kts | 198° |
| 2026-05-07 16:58 | 40.48668 | -7.04408 | 36888 ft | 440 kts | 198° |
| 2026-05-07 16:59 | 40.42738 | -7.06429 | 36880 ft | 440 kts | 198° |
| 2026-05-07 16:59 | 40.36810 | -7.08445 | 36878 ft | 440 kts | 198° |
| 2026-05-07 17:00 | 40.30875 | -7.10460 | 36880 ft | 440 kts | 198° |
| 2026-05-07 17:00 | 40.24931 | -7.12474 | 36849 ft | 441 kts | 198° |
| 2026-05-07 17:01 | 40.18989 | -7.14484 | 36869 ft | 441 kts | 198° |
| 2026-05-07 17:01 | 40.13050 | -7.16490 | 36875 ft | 441 kts | 198° |
| 2026-05-07 17:02 | 40.07107 | -7.18493 | 36867 ft | 441 kts | 198° |
| 2026-05-07 17:02 | 40.01158 | -7.20494 | 36859 ft | 441 kts | 198° |
| 2026-05-07 17:03 | 39.95229 | -7.22485 | 36870 ft | 441 kts | 198° |
| 2026-05-07 17:03 | 39.89288 | -7.24477 | 36864 ft | 440 kts | 198° |
| 2026-05-07 17:04 | 39.83377 | -7.26419 | 36859 ft | 442 kts | 195° |
| 2026-05-07 17:04 | 39.77307 | -7.27760 | 36854 ft | 443 kts | 192° |
| 2026-05-07 17:05 | 39.71207 | -7.28909 | 36867 ft | 442 kts | 192° |
| 2026-05-07 17:05 | 39.65118 | -7.30094 | 36862 ft | 442 kts | 193° |
| 2026-05-07 17:06 | 39.59040 | -7.31321 | 36862 ft | 442 kts | 193° |
| 2026-05-07 17:06 | 39.52967 | -7.32563 | 36862 ft | 441 kts | 193° |
| 2026-05-07 17:07 | 39.46907 | -7.33802 | 36866 ft | 441 kts | 193° |
| 2026-05-07 17:07 | 39.40839 | -7.35040 | 36871 ft | 441 kts | 193° |
| 2026-05-07 17:08 | 39.34769 | -7.36275 | 36869 ft | 442 kts | 193° |
| 2026-05-07 17:08 | 39.29721 | -7.37300 | 36864 ft | 442 kts | 193° |
| 2026-05-07 17:09 | 39.23640 | -7.38533 | 36867 ft | 442 kts | 193° |
| 2026-05-07 17:09 | 39.17559 | -7.39764 | 36870 ft | 442 kts | 193° |
| 2026-05-07 17:10 | 39.11476 | -7.40993 | 36854 ft | 443 kts | 193° |
| 2026-05-07 17:10 | 39.05391 | -7.42220 | 36868 ft | 442 kts | 193° |
| 2026-05-07 17:11 | 38.99303 | -7.43446 | 36872 ft | 442 kts | 193° |
| 2026-05-07 17:11 | 38.93227 | -7.44667 | 36865 ft | 442 kts | 193° |
| 2026-05-07 17:12 | 38.87152 | -7.45886 | 36851 ft | 442 kts | 193° |
| 2026-05-07 17:12 | 38.81072 | -7.47103 | 36867 ft | 442 kts | 193° |
| 2026-05-07 17:13 | 38.74995 | -7.48319 | 36871 ft | 442 kts | 193° |
| 2026-05-07 17:13 | 38.68923 | -7.49531 | 36867 ft | 442 kts | 193° |
| 2026-05-07 17:14 | 38.62851 | -7.50741 | 36858 ft | 441 kts | 193° |
| 2026-05-07 17:14 | 38.56780 | -7.51948 | 36869 ft | 441 kts | 193° |
| 2026-05-07 17:15 | 38.50751 | -7.53145 | 36871 ft | 441 kts | 193° |
| 2026-05-07 17:15 | 38.44638 | -7.54357 | 36865 ft | 441 kts | 193° |
| 2026-05-07 17:16 | 38.38606 | -7.55551 | 36855 ft | 441 kts | 193° |
| 2026-05-07 17:16 | 38.32541 | -7.56749 | 36857 ft | 441 kts | 193° |
| 2026-05-07 17:17 | 38.26472 | -7.57946 | 36865 ft | 441 kts | 193° |
| 2026-05-07 17:17 | 38.20406 | -7.59140 | 36872 ft | 441 kts | 193° |
| 2026-05-07 17:18 | 38.14328 | -7.60335 | 36893 ft | 441 kts | 193° |
| 2026-05-07 17:18 | 38.08257 | -7.61524 | 36880 ft | 442 kts | 192° |
| 2026-05-07 17:19 | 38.02138 | -7.62417 | 36895 ft | 443 kts | 189° |
| 2026-05-07 17:19 | 37.95984 | -7.63146 | 36865 ft | 444 kts | 189° |
| 2026-05-07 17:20 | 37.89845 | -7.63893 | 36867 ft | 443 kts | 189° |
| 2026-05-07 17:20 | 37.83717 | -7.64672 | 36869 ft | 442 kts | 190° |
| 2026-05-07 17:21 | 37.77590 | -7.65464 | 36868 ft | 442 kts | 190° |
| 2026-05-07 17:21 | 37.71476 | -7.66256 | 36871 ft | 441 kts | 190° |
| 2026-05-07 17:22 | 37.65408 | -7.67039 | 36863 ft | 440 kts | 190° |
| 2026-05-07 17:22 | 37.59312 | -7.67824 | 36866 ft | 440 kts | 190° |
| 2026-05-07 17:23 | 37.53224 | -7.68607 | 36872 ft | 440 kts | 190° |
| 2026-05-07 17:23 | 37.47135 | -7.69389 | 36873 ft | 440 kts | 190° |
| 2026-05-07 17:24 | 37.41052 | -7.70168 | 36867 ft | 439 kts | 190° |
| 2026-05-07 17:24 | 37.34966 | -7.70947 | 36873 ft | 439 kts | 190° |
| 2026-05-07 17:25 | 37.28881 | -7.71724 | 36874 ft | 440 kts | 190° |
| 2026-05-07 17:25 | 37.22792 | -7.72501 | 36879 ft | 440 kts | 190° |
| 2026-05-07 17:26 | 37.16697 | -7.73277 | 36875 ft | 440 kts | 190° |
| 2026-05-07 17:26 | 37.10607 | -7.74050 | 36875 ft | 440 kts | 190° |
| 2026-05-07 17:27 | 37.04510 | -7.74824 | 36882 ft | 440 kts | 190° |
| 2026-05-07 17:27 | 36.98419 | -7.75596 | 36883 ft | 440 kts | 190° |
| 2026-05-07 17:28 | 36.92330 | -7.76366 | 36880 ft | 439 kts | 190° |
| 2026-05-07 17:28 | 36.86245 | -7.77134 | 36885 ft | 439 kts | 190° |
| 2026-05-07 17:29 | 36.80168 | -7.77900 | 36885 ft | 439 kts | 190° |
| 2026-05-07 17:29 | 36.74087 | -7.78666 | 36888 ft | 439 kts | 190° |
| 2026-05-07 17:30 | 36.68052 | -7.79424 | 36893 ft | 438 kts | 190° |
| 2026-05-07 17:30 | 36.61985 | -7.80185 | 36896 ft | 438 kts | 190° |
| 2026-05-07 17:31 | 36.55924 | -7.80944 | 36906 ft | 438 kts | 190° |
| 2026-05-07 17:31 | 36.49862 | -7.81703 | 36904 ft | 437 kts | 190° |
| 2026-05-07 17:32 | 36.43809 | -7.82459 | 36900 ft | 437 kts | 190° |
| 2026-05-07 17:32 | 36.38788 | -7.83085 | 36907 ft | 437 kts | 190° |
| 2026-05-07 17:33 | 36.31710 | -7.83966 | 36908 ft | 437 kts | 190° |
| 2026-05-07 17:33 | 36.25660 | -7.84718 | 36917 ft | 437 kts | 190° |
| 2026-05-07 17:34 | 36.19613 | -7.85469 | 36912 ft | 437 kts | 190° |
| 2026-05-07 17:34 | 36.13562 | -7.86218 | 36918 ft | 437 kts | 190° |
| 2026-05-07 17:35 | 36.07517 | -7.86966 | 36919 ft | 437 kts | 190° |
| 2026-05-07 17:35 | 36.01508 | -7.87708 | 36918 ft | 437 kts | 190° |
| 2026-05-07 17:36 | 35.95404 | -7.88291 | 36914 ft | 441 kts | 183° |
| 2026-05-07 17:36 | 35.89261 | -7.87745 | 36918 ft | 443 kts | 180° |
| 2026-05-07 17:37 | 35.83120 | -7.87103 | 36921 ft | 443 kts | 180° |
| 2026-05-07 17:37 | 35.80059 | -7.86977 | 36902 ft | 436 kts | 191° |
| 2026-05-07 17:37 | 35.77086 | -7.87562 | 36941 ft | 431 kts | 197° |
| 2026-05-07 17:38 | 35.71271 | -7.89292 | 36928 ft | 429 kts | 199° |
| 2026-05-07 17:38 | 35.65523 | -7.91128 | 36927 ft | 429 kts | 199° |
| 2026-05-07 17:39 | 35.59744 | -7.92996 | 36929 ft | 429 kts | 199° |
| 2026-05-07 17:39 | 35.53964 | -7.94873 | 36931 ft | 429 kts | 199° |
| 2026-05-07 17:40 | 35.48184 | -7.96751 | 36912 ft | 429 kts | 199° |
| 2026-05-07 17:40 | 35.42409 | -7.98620 | 36927 ft | 429 kts | 199° |
| 2026-05-07 17:41 | 35.36630 | -8.00483 | 36936 ft | 429 kts | 199° |
| 2026-05-07 17:41 | 35.30859 | -8.02340 | 36939 ft | 429 kts | 199° |
| 2026-05-07 17:42 | 35.25082 | -8.04196 | 36939 ft | 429 kts | 199° |
| 2026-05-07 17:42 | 35.19312 | -8.06044 | 36931 ft | 428 kts | 199° |
| 2026-05-07 17:43 | 35.13679 | -8.08145 | 36939 ft | 423 kts | 207° |
| 2026-05-07 17:43 | 35.08278 | -8.11079 | 36934 ft | 422 kts | 208° |
| 2026-05-07 17:44 | 35.02965 | -8.14097 | 36942 ft | 421 kts | 209° |
| 2026-05-07 17:44 | 34.97664 | -8.17133 | 36943 ft | 421 kts | 209° |
| 2026-05-07 17:45 | 34.92394 | -8.20151 | 36936 ft | 420 kts | 209° |
| 2026-05-07 17:45 | 34.87107 | -8.23173 | 36942 ft | 420 kts | 209° |
| 2026-05-07 17:46 | 34.81813 | -8.26195 | 36942 ft | 420 kts | 209° |
| 2026-05-07 17:46 | 34.76527 | -8.29211 | 36948 ft | 420 kts | 209° |
| 2026-05-07 17:47 | 34.71242 | -8.32223 | 36944 ft | 419 kts | 209° |
| 2026-05-07 17:47 | 34.65960 | -8.35230 | 36953 ft | 419 kts | 209° |
| 2026-05-07 17:48 | 34.60680 | -8.38235 | 36957 ft | 419 kts | 209° |
| 2026-05-07 17:48 | 34.55208 | -8.40686 | 36961 ft | 427 kts | 193° |
| 2026-05-07 17:49 | 34.49287 | -8.41551 | 36953 ft | 429 kts | 192° |
| 2026-05-07 17:49 | 34.43358 | -8.42431 | 36916 ft | 428 kts | 193° |
| 2026-05-07 17:50 | 34.37464 | -8.43438 | 36940 ft | 427 kts | 193° |
| 2026-05-07 17:50 | 34.32577 | -8.44328 | 36952 ft | 427 kts | 194° |
| 2026-05-07 17:51 | 34.26706 | -8.45415 | 36948 ft | 427 kts | 194° |
| 2026-05-07 17:51 | 34.20828 | -8.46505 | 36951 ft | 427 kts | 194° |
| 2026-05-07 17:52 | 34.14954 | -8.47590 | 36946 ft | 427 kts | 194° |
| 2026-05-07 17:52 | 34.09081 | -8.48672 | 36947 ft | 426 kts | 194° |
| 2026-05-07 17:53 | 34.03215 | -8.49750 | 36952 ft | 426 kts | 194° |
| 2026-05-07 17:53 | 33.97348 | -8.50828 | 36950 ft | 426 kts | 194° |
| 2026-05-07 17:54 | 33.91490 | -8.51902 | 36915 ft | 426 kts | 194° |
| 2026-05-07 17:54 | 33.85643 | -8.52972 | 36937 ft | 425 kts | 194° |
| 2026-05-07 17:55 | 33.79835 | -8.54032 | 36970 ft | 423 kts | 189° |
| 2026-05-07 17:55 | 33.73961 | -8.55098 | 36987 ft | 429 kts | 194° |
| 2026-05-07 17:56 | 33.68057 | -8.56185 | 36988 ft | 435 kts | 194° |
| 2026-05-07 17:56 | 33.62031 | -8.57285 | 36971 ft | 435 kts | 194° |
| 2026-05-07 17:57 | 33.57053 | -8.58189 | 36971 ft | 435 kts | 194° |
| 2026-05-07 17:57 | 33.50120 | -8.59446 | 36976 ft | 433 kts | 194° |
| 2026-05-07 17:58 | 33.44170 | -8.60524 | 36970 ft | 431 kts | 194° |
| 2026-05-07 17:58 | 33.38251 | -8.61596 | 36953 ft | 430 kts | 194° |
| 2026-05-07 17:59 | 33.32357 | -8.62661 | 36962 ft | 427 kts | 194° |
| 2026-05-07 17:59 | 33.26457 | -8.63727 | 36969 ft | 425 kts | 194° |
| 2026-05-07 18:00 | 33.20649 | -8.64775 | 36975 ft | 424 kts | 194° |
| 2026-05-07 18:00 | 33.14825 | -8.65824 | 36980 ft | 423 kts | 194° |
| 2026-05-07 18:01 | 33.09016 | -8.66869 | 36978 ft | 422 kts | 194° |
| 2026-05-07 18:01 | 33.03202 | -8.67914 | 36971 ft | 422 kts | 194° |
| 2026-05-07 18:02 | 32.94469 | -8.69481 | 36973 ft | 424 kts | 194° |
| 2026-05-07 18:03 | 32.88633 | -8.70526 | 36987 ft | 424 kts | 194° |
| 2026-05-07 18:03 | 32.82788 | -8.71571 | 36966 ft | 425 kts | 194° |
| 2026-05-07 18:04 | 32.76934 | -8.72617 | 36971 ft | 426 kts | 193° |
| 2026-05-07 18:04 | 32.71062 | -8.73664 | 36976 ft | 427 kts | 193° |
| 2026-05-07 18:05 | 32.65163 | -8.74715 | 36973 ft | 429 kts | 193° |
| 2026-05-07 18:05 | 32.59244 | -8.75767 | 36970 ft | 431 kts | 193° |
| 2026-05-07 18:06 | 32.53317 | -8.76820 | 36959 ft | 431 kts | 193° |
| 2026-05-07 18:06 | 32.47424 | -8.77864 | 36960 ft | 430 kts | 193° |
| 2026-05-07 18:07 | 32.41511 | -8.78911 | 36963 ft | 429 kts | 193° |
| 2026-05-07 18:07 | 32.35599 | -8.79956 | 36963 ft | 428 kts | 193° |
| 2026-05-07 18:08 | 32.29705 | -8.80997 | 36948 ft | 427 kts | 194° |
| 2026-05-07 18:08 | 32.23853 | -8.82029 | 36956 ft | 424 kts | 194° |
| 2026-05-07 18:09 | 32.18031 | -8.83055 | 36951 ft | 422 kts | 194° |
| 2026-05-07 18:09 | 32.12236 | -8.84075 | 36961 ft | 420 kts | 194° |
| 2026-05-07 18:10 | 32.06504 | -8.85079 | 36931 ft | 406 kts | 194° |
| 2026-05-07 18:10 | 32.03760 | -8.85555 | 36906 ft | 392 kts | 194° |
| 2026-05-07 18:10 | 32.01077 | -8.86023 | 36421 ft | 390 kts | 195° |
| 2026-05-07 18:10 | 31.98371 | -8.86503 | 35638 ft | 396 kts | 195° |
| 2026-05-07 18:11 | 31.95623 | -8.86992 | 34876 ft | 401 kts | 195° |
| 2026-05-07 18:11 | 31.93791 | -8.87318 | 34404 ft | 404 kts | 195° |
| 2026-05-07 18:11 | 31.90066 | -8.87974 | 33459 ft | 406 kts | 194° |
| 2026-05-07 18:11 | 31.87248 | -8.88470 | 32488 ft | 412 kts | 194° |
| 2026-05-07 18:12 | 31.84379 | -8.88975 | 31401 ft | 422 kts | 194° |
| 2026-05-07 18:12 | 31.81444 | -8.89490 | 30471 ft | 429 kts | 193° |
| 2026-05-07 18:12 | 31.78491 | -8.90003 | 29906 ft | 427 kts | 193° |
| 2026-05-07 18:12 | 31.75563 | -8.90510 | 29273 ft | 423 kts | 193° |
| 2026-05-07 18:13 | 31.72669 | -8.91009 | 28761 ft | 417 kts | 193° |
| 2026-05-07 18:13 | 31.69811 | -8.91502 | 28242 ft | 412 kts | 193° |
| 2026-05-07 18:13 | 31.66993 | -8.91991 | 27738 ft | 407 kts | 193° |
| 2026-05-07 18:13 | 31.64203 | -8.92475 | 27224 ft | 403 kts | 193° |
| 2026-05-07 18:14 | 31.61443 | -8.92956 | 26725 ft | 399 kts | 194° |
| 2026-05-07 18:14 | 31.58707 | -8.93431 | 26246 ft | 396 kts | 194° |
| 2026-05-07 18:14 | 31.55991 | -8.93904 | 25760 ft | 392 kts | 194° |
| 2026-05-07 18:14 | 31.53302 | -8.94371 | 25287 ft | 390 kts | 194° |
| 2026-05-07 18:15 | 31.50664 | -8.94830 | 24816 ft | 387 kts | 194° |
| 2026-05-07 18:15 | 31.48003 | -8.95292 | 24300 ft | 386 kts | 194° |
| 2026-05-07 18:15 | 31.45359 | -8.95751 | 23844 ft | 383 kts | 194° |
| 2026-05-07 18:15 | 31.42725 | -8.96208 | 23325 ft | 382 kts | 194° |
| 2026-05-07 18:16 | 31.40097 | -8.96664 | 22783 ft | 380 kts | 194° |
| 2026-05-07 18:16 | 31.37489 | -8.97115 | 22301 ft | 378 kts | 194° |
| 2026-05-07 18:16 | 31.34899 | -8.97563 | 21822 ft | 375 kts | 193° |
| 2026-05-07 18:16 | 31.32329 | -8.98007 | 21353 ft | 372 kts | 193° |
| 2026-05-07 18:17 | 31.29774 | -8.98448 | 20880 ft | 370 kts | 193° |
| 2026-05-07 18:17 | 31.27234 | -8.98886 | 20421 ft | 368 kts | 193° |
| 2026-05-07 18:17 | 31.24713 | -8.99321 | 19950 ft | 365 kts | 193° |
| 2026-05-07 18:17 | 31.22198 | -8.99755 | 19511 ft | 364 kts | 193° |
| 2026-05-07 18:18 | 31.19702 | -9.00186 | 19042 ft | 362 kts | 193° |
| 2026-05-07 18:18 | 31.17210 | -9.00617 | 18596 ft | 361 kts | 193° |
| 2026-05-07 18:18 | 31.14721 | -9.01047 | 18159 ft | 361 kts | 193° |
| 2026-05-07 18:18 | 31.12262 | -9.01467 | 18018 ft | 356 kts | 193° |
| 2026-05-07 18:19 | 31.09826 | -9.01884 | 17938 ft | 349 kts | 193° |
| 2026-05-07 18:19 | 31.07466 | -9.02287 | 17900 ft | 335 kts | 193° |
| 2026-05-07 18:19 | 31.05206 | -9.02672 | 17903 ft | 321 kts | 193° |
| 2026-05-07 18:19 | 31.03039 | -9.03044 | 17904 ft | 307 kts | 194° |
| 2026-05-07 18:20 | 31.00987 | -9.03468 | 17906 ft | 291 kts | 201° |
| 2026-05-07 18:20 | 30.99148 | -9.04260 | 17919 ft | 273 kts | 208° |
| 2026-05-07 18:20 | 30.97430 | -9.05124 | 17667 ft | 269 kts | 209° |
| 2026-05-07 18:20 | 30.95655 | -9.06034 | 16624 ft | 291 kts | 208° |
| 2026-05-07 18:21 | 30.93716 | -9.07029 | 15465 ft | 318 kts | 207° |
| 2026-05-07 18:21 | 30.91616 | -9.08094 | 14458 ft | 338 kts | 206° |
| 2026-05-07 18:21 | 30.89481 | -9.09162 | 14229 ft | 330 kts | 206° |
| 2026-05-07 18:21 | 30.87399 | -9.10196 | 14099 ft | 320 kts | 206° |
| 2026-05-07 18:22 | 30.85379 | -9.11200 | 13956 ft | 311 kts | 206° |
| 2026-05-07 18:22 | 30.84078 | -9.11846 | 13915 ft | 304 kts | 206° |
| 2026-05-07 18:22 | 30.81574 | -9.13090 | 13884 ft | 287 kts | 206° |
| 2026-05-07 18:22 | 30.79751 | -9.13997 | 13879 ft | 275 kts | 206° |
| 2026-05-07 18:23 | 30.78056 | -9.14840 | 13875 ft | 263 kts | 207° |
| 2026-05-07 18:23 | 30.76416 | -9.15655 | 13878 ft | 250 kts | 207° |
| 2026-05-07 18:23 | 30.74854 | -9.16431 | 13865 ft | 240 kts | 207° |
| 2026-05-07 18:23 | 30.73338 | -9.17185 | 13871 ft | 236 kts | 207° |
| 2026-05-07 18:24 | 30.71807 | -9.17948 | 13902 ft | 243 kts | 207° |
| 2026-05-07 18:24 | 30.70233 | -9.18734 | 13899 ft | 249 kts | 207° |
| 2026-05-07 18:24 | 30.68651 | -9.19542 | 13888 ft | 247 kts | 207° |
| 2026-05-07 18:24 | 30.67080 | -9.20351 | 13869 ft | 245 kts | 207° |
| 2026-05-07 18:25 | 30.65523 | -9.21137 | 13833 ft | 246 kts | 202° |
| 2026-05-07 18:25 | 30.63832 | -9.21628 | 13539 ft | 258 kts | 192° |
| 2026-05-07 18:25 | 30.61955 | -9.21459 | 12791 ft | 286 kts | 165° |
| 2026-05-07 18:25 | 30.60123 | -9.20349 | 12035 ft | 307 kts | 151° |
| 2026-05-07 18:26 | 30.58298 | -9.18936 | 11264 ft | 324 kts | 149° |
| 2026-05-07 18:26 | 30.56402 | -9.17424 | 10484 ft | 338 kts | 146° |
| 2026-05-07 18:26 | 30.54729 | -9.15439 | 9707 ft | 354 kts | 126° |
| 2026-05-07 18:26 | 30.53463 | -9.12939 | 8906 ft | 364 kts | 120° |
| 2026-05-07 18:27 | 30.52264 | -9.10316 | 8099 ft | 372 kts | 118° |
| 2026-05-07 18:27 | 30.51055 | -9.07635 | 7312 ft | 379 kts | 118° |
| 2026-05-07 18:27 | 30.49819 | -9.04925 | 6555 ft | 383 kts | 118° |
| 2026-05-07 18:27 | 30.48988 | -9.03127 | 6290 ft | 379 kts | 118° |
| 2026-05-07 18:28 | 30.47358 | -8.99626 | 6059 ft | 357 kts | 118° |
| 2026-05-07 18:28 | 30.46215 | -8.97174 | 5912 ft | 335 kts | 119° |
| 2026-05-07 18:28 | 30.45024 | -8.94980 | 5868 ft | 310 kts | 133° |
| 2026-05-07 18:28 | 30.43368 | -8.93538 | 5884 ft | 290 kts | 160° |
| 2026-05-07 18:29 | 30.41473 | -8.93004 | 5902 ft | 274 kts | 176° |
| 2026-05-07 18:29 | 30.39573 | -8.92757 | 5905 ft | 275 kts | 178° |
| 2026-05-07 18:29 | 30.37677 | -8.92550 | 5891 ft | 273 kts | 178° |
| 2026-05-07 18:29 | 30.35789 | -8.92347 | 5897 ft | 271 kts | 178° |
| 2026-05-07 18:30 | 30.33915 | -8.92159 | 5891 ft | 269 kts | 178° |
| 2026-05-07 18:30 | 30.32060 | -8.91993 | 5892 ft | 267 kts | 179° |
| 2026-05-07 18:30 | 30.30208 | -8.91815 | 5891 ft | 267 kts | 179° |
| 2026-05-07 18:30 | 30.28365 | -8.91821 | 5865 ft | 263 kts | 199° |
| 2026-05-07 18:31 | 30.26775 | -8.92750 | 5905 ft | 256 kts | 227° |
| 2026-05-07 18:31 | 30.25811 | -8.94418 | 5893 ft | 249 kts | 255° |
| 2026-05-07 18:31 | 30.25707 | -8.96360 | 5889 ft | 240 kts | 283° |
| 2026-05-07 18:31 | 30.26216 | -8.98174 | 5600 ft | 239 kts | 290° |
| 2026-05-07 18:32 | 30.26629 | -8.99378 | 5246 ft | 246 kts | 290° |
| 2026-05-07 18:32 | 30.27287 | -9.01195 | 5011 ft | 243 kts | 291° |
| 2026-05-07 18:32 | 30.27951 | -9.02973 | 4864 ft | 236 kts | 291° |
| 2026-05-07 18:32 | 30.28589 | -9.04656 | 4775 ft | 222 kts | 291° |
| 2026-05-07 18:33 | 30.29193 | -9.06233 | 4689 ft | 207 kts | 291° |
| 2026-05-07 18:33 | 30.29765 | -9.07698 | 4587 ft | 193 kts | 291° |
| 2026-05-07 18:33 | 30.30310 | -9.09082 | 4480 ft | 188 kts | 292° |
| 2026-05-07 18:33 | 30.30832 | -9.10430 | 4388 ft | 177 kts | 291° |
| 2026-05-07 18:34 | 30.31316 | -9.11660 | 4357 ft | 161 kts | 290° |
| 2026-05-07 18:34 | 30.31520 | -9.12906 | 4305 ft | 156 kts | 272° |
| 2026-05-07 18:34 | 30.31594 | -9.14160 | 4147 ft | 156 kts | 273° |
| 2026-05-07 18:34 | 30.31644 | -9.15367 | 4082 ft | 145 kts | 270° |
| 2026-05-07 18:35 | 30.31679 | -9.16561 | 4021 ft | 159 kts | 271° |
| 2026-05-07 18:35 | 30.31722 | -9.17828 | 3831 ft | 155 kts | 270° |
| 2026-05-07 18:35 | 30.31754 | -9.19044 | 3643 ft | 147 kts | 269° |
| 2026-05-07 18:35 | 30.31781 | -9.20209 | 3454 ft | 143 kts | 270° |
| 2026-05-07 18:36 | 30.31806 | -9.21366 | 3273 ft | 148 kts | 269° |
| 2026-05-07 18:36 | 30.31835 | -9.22564 | 3077 ft | 150 kts | 268° |
| 2026-05-07 18:36 | 30.31861 | -9.23724 | 2887 ft | 137 kts | 268° |
| 2026-05-07 18:36 | 30.31881 | -9.24801 | 2732 ft | 135 kts | 270° |
| 2026-05-07 18:37 | 30.31909 | -9.25903 | 2535 ft | 137 kts | 269° |
| 2026-05-07 18:37 | 30.31934 | -9.26992 | 2349 ft | 133 kts | 267° |
| 2026-05-07 18:37 | 30.31957 | -9.28061 | 2178 ft | 134 kts | 266° |
| 2026-05-07 18:37 | 30.31981 | -9.29141 | 1995 ft | 135 kts | 266° |
| 2026-05-07 18:38 | 30.32006 | -9.30217 | 1826 ft | 135 kts | 266° |
| 2026-05-07 18:38 | 30.32030 | -9.31315 | 1654 ft | 138 kts | 265° |
| 2026-05-07 18:38 | 30.32056 | -9.32429 | 1448 ft | 138 kts | 265° |
| 2026-05-07 18:38 | 30.32080 | -9.33537 | 1273 ft | 138 kts | 267° |
| 2026-05-07 18:39 | 30.32108 | -9.34645 | 1093 ft | 138 kts | 267° |
| 2026-05-07 18:39 | 30.32133 | -9.35744 | 926 ft | 133 kts | 263° |
| 2026-05-07 18:39 | 30.32145 | -9.36838 | 735 ft | 143 kts | 265° |
| 2026-05-07 18:39 | 30.32184 | -9.37995 | 527 ft | 146 kts | 269° |
| 2026-05-07 18:40 | 30.32218 | -9.39177 | 365 ft | 147 kts | 264° |
| 2026-05-07 18:40 | 30.32239 | -9.40332 | 246 ft | 134 kts | 266° |
| 2026-05-07 18:40 | 30.32265 | -9.41253 | 233 ft | 81 kts | 271° |
| 2026-05-07 18:40 | 30.32276 | -9.41699 | 226 ft | 25 kts | 273° |
| 2026-05-07 18:41 | 30.32321 | -9.41899 | 219 ft | 24 kts | 300° |
| 2026-05-07 18:41 | 30.32359 | -9.41974 | 219 ft | 16 kts | 302° |
| 2026-05-07 18:41 | 30.32425 | -9.42100 | 217 ft | 7 kts | 306° |
| 2026-05-07 18:41 | 30.32427 | -9.42102 | 223 ft | 0 kts | 305° |
| 2026-05-07 18:42 | 30.32428 | -9.42105 | 222 ft | 1 kts | 301° |
| 2026-05-07 18:42 | 30.32442 | -9.42131 | 218 ft | 7 kts | 302° |
| 2026-05-07 18:42 | 30.32467 | -9.42169 | 216 ft | 1 kts | 317° |
| 2026-05-07 18:42 | 30.32492 | -9.42189 | 216 ft | 8 kts | 339° |
| 2026-05-07 18:43 | 30.32569 | -9.42192 | 216 ft | 14 kts | 358° |
| 2026-05-07 18:43 | 30.32677 | -9.42191 | 218 ft | 17 kts | 2° |
| 2026-05-07 18:43 | 30.32779 | -9.42184 | 221 ft | 13 kts | 9° |
| 2026-05-07 18:43 | 30.32833 | -9.42120 | 217 ft | 12 kts | 79° |
| 2026-05-07 18:44 | 30.32833 | -9.42027 | 218 ft | 11 kts | 93° |
| 2026-05-07 18:44 | 30.32830 | -9.41935 | 220 ft | 12 kts | 91° |
| 2026-05-07 18:44 | 30.32828 | -9.41838 | 222 ft | 12 kts | 92° |
| 2026-05-07 18:44 | 30.32825 | -9.41739 | 223 ft | 12 kts | 91° |
| 2026-05-07 18:45 | 30.32823 | -9.41638 | 225 ft | 12 kts | 91° |
| 2026-05-07 18:45 | 30.32821 | -9.41550 | 226 ft | 11 kts | 89° |
| 2026-05-07 18:45 | 30.32823 | -9.41464 | 228 ft | 9 kts | 93° |
| 2026-05-07 18:45 | 30.32817 | -9.41405 | 229 ft | 4 kts | 97° |
| 2026-05-07 18:46 | 30.32833 | -9.41389 | 230 ft | 2 kts | 3° |
| 2026-05-07 18:46 | 30.32840 | -9.41390 | 229 ft | 2 kts | 352° |
| 2026-05-07 18:46 | 30.32852 | -9.41390 | 229 ft | 2 kts | 359° |
| 2026-05-07 18:46 | 30.32874 | -9.41389 | 229 ft | 0 kts | 4° |